createdAt,value
2023-01-18T00:01:08.811Z,22.25
2023-01-18T00:06:05.407Z,25.35
2023-01-18T00:08:34.437Z,21.88
2023-01-18T00:11:05.845Z,23.20
2023-01-18T00:13:32.990Z,27.60
2023-01-18T00:16:04.508Z,22.23
2023-01-18T00:18:31.845Z,22.93
2023-01-18T00:21:03.244Z,24.48
2023-01-18T00:23:30.131Z,21.23
2023-01-18T00:26:05.770Z,19.40
2023-01-18T00:28:33.215Z,24.08
2023-01-18T00:31:00.045Z,27.10
2023-01-18T00:33:26.863Z,26.30
2023-01-18T00:36:02.274Z,21.70
2023-01-18T00:38:30.158Z,20.25
2023-01-18T00:40:57.315Z,25.58
2023-01-18T00:43:39.189Z,21.20
2023-01-18T00:46:16.434Z,26.10
2023-01-18T00:48:44.611Z,22.48
2023-01-18T00:51:18.670Z,25.95
2023-01-18T00:53:47.356Z,26.27
2023-01-18T00:56:17.394Z,24.00
2023-01-18T00:58:44.735Z,20.67
2023-01-18T01:01:12.976Z,27.67
2023-01-18T01:03:58.963Z,20.50
2023-01-18T01:06:44.826Z,21.83
2023-01-18T01:09:24.621Z,19.80
2023-01-18T01:12:09.969Z,27.27
2023-01-18T01:15:02.385Z,20.73
2023-01-18T01:17:50.173Z,20.35
2023-01-18T01:20:35.895Z,19.88
2023-01-18T01:23:32.129Z,20.50
2023-01-18T01:26:05.412Z,26.58
2023-01-18T01:28:32.427Z,19.90
2023-01-18T01:31:00.543Z,21.98
2023-01-18T01:33:28.496Z,23.90
2023-01-18T01:36:00.473Z,17.10
2023-01-18T01:38:28.337Z,18.80
2023-01-18T01:41:26.980Z,19.77
2023-01-18T01:43:57.733Z,16.98
2023-01-18T01:46:42.471Z,22.45
2023-01-18T01:49:21.291Z,20.10
2023-01-18T01:51:53.500Z,20.52
2023-01-18T01:54:34.336Z,21.55
2023-01-18T01:57:11.004Z,24.25
2023-01-18T01:59:44.441Z,23.25
2023-01-18T02:02:12.161Z,22.20
2023-01-18T02:04:44.199Z,23.33
2023-01-18T02:07:13.968Z,19.40
2023-01-18T02:09:41.632Z,17.40
2023-01-18T02:12:08.486Z,18.40
2023-01-18T02:14:35.968Z,23.42
2023-01-18T02:17:28.385Z,22.92
2023-01-18T02:20:19.685Z,23.25
2023-01-18T02:23:07.227Z,23.83
2023-01-18T02:25:49.144Z,26.13
2023-01-18T02:28:32.610Z,19.73
2023-01-18T02:31:18.153Z,25.02
2023-01-18T02:34:03.758Z,22.33
2023-01-18T02:36:42.175Z,16.95
2023-01-18T02:39:38.477Z,20.02
2023-01-18T02:42:37.729Z,19.48
2023-01-18T02:45:45.368Z,21.75
2023-01-18T02:48:12.954Z,27.95
2023-01-18T02:50:39.724Z,18.85
2023-01-18T02:53:06.523Z,19.90
2023-01-18T02:55:57.870Z,17.13
2023-01-18T02:58:42.689Z,19.80
2023-01-18T03:01:18.081Z,21.55
2023-01-18T03:03:49.143Z,20.70
2023-01-18T03:06:15.897Z,25.55
2023-01-18T03:08:48.031Z,20.13
2023-01-18T03:11:26.915Z,22.65
2023-01-18T03:14:12.183Z,22.98
2023-01-18T03:16:58.105Z,26.05
2023-01-18T03:19:50.923Z,30.25
2023-01-18T03:24:45.775Z,21.95
2023-01-18T03:27:32.431Z,19.45
2023-01-18T03:30:18.053Z,21.63
2023-01-18T03:33:04.163Z,27.35
2023-01-18T03:35:31.595Z,23.85
2023-01-18T03:37:59.542Z,20.75
2023-01-18T03:40:29.615Z,23.98
2023-01-18T03:43:06.033Z,28.75
2023-01-18T03:45:39.603Z,24.92
2023-01-18T03:48:08.449Z,21.90
2023-01-18T03:50:56.149Z,21.58
2023-01-18T03:53:45.797Z,21.15
2023-01-18T03:56:30.108Z,21.67
2023-01-18T03:58:59.055Z,19.23
2023-01-18T04:01:33.511Z,21.05
2023-01-18T04:04:00.387Z,19.95
2023-01-18T04:06:28.200Z,21.88
2023-01-18T04:08:54.968Z,22.63
2023-01-18T04:11:21.702Z,21.95
2023-01-18T04:14:17.080Z,23.27
2023-01-18T04:16:43.891Z,23.50
2023-01-18T04:19:10.847Z,22.33
2023-01-18T04:21:38.542Z,24.50
2023-01-18T04:24:06.114Z,34.63
2023-01-18T04:26:36.013Z,23.85
2023-01-18T04:29:03.420Z,28.20
2023-01-18T04:31:30.213Z,21.80
2023-01-18T04:33:57.034Z,31.40
2023-01-18T04:36:23.839Z,21.55
2023-01-18T04:38:54.562Z,22.63
2023-01-18T04:41:21.819Z,22.55
2023-01-18T04:43:51.689Z,21.67
2023-01-18T04:46:18.525Z,27.75
2023-01-18T04:48:48.879Z,29.67
2023-01-18T04:51:15.670Z,20.15
2023-01-18T04:53:43.052Z,24.73
2023-01-18T04:56:11.024Z,24.25
2023-01-18T04:58:38.284Z,22.17
2023-01-18T05:01:07.580Z,26.05
2023-01-18T05:03:38.495Z,23.80
2023-01-18T05:06:11.359Z,22.08
2023-01-18T05:08:41.747Z,25.70
2023-01-18T05:11:14.416Z,23.77
2023-01-18T05:13:41.652Z,23.83
2023-01-18T05:16:43.040Z,22.90
2023-01-18T05:19:10.412Z,20.17
2023-01-18T05:21:37.151Z,23.10
2023-01-18T05:24:04.186Z,22.98
2023-01-18T05:26:32.111Z,21.13
2023-01-18T05:28:59.606Z,22.55
2023-01-18T05:31:26.960Z,24.35
2023-01-18T05:33:53.868Z,23.95
2023-01-18T05:36:20.723Z,22.60
2023-01-18T05:38:47.948Z,28.25
2023-01-18T05:41:14.834Z,23.27
2023-01-18T05:43:43.129Z,22.73
2023-01-18T05:46:10.140Z,30.77
2023-01-18T05:48:37.062Z,26.83
2023-01-18T05:51:11.646Z,28.30
2023-01-18T05:53:39.925Z,33.38
2023-01-18T05:56:07.867Z,24.73
2023-01-18T05:58:36.663Z,26.02
2023-01-18T06:01:04.987Z,25.45
2023-01-18T06:03:32.039Z,22.05
2023-01-18T06:05:59.246Z,24.08
2023-01-18T06:08:26.393Z,29.17
2023-01-18T06:10:54.787Z,33.50
2023-01-18T06:13:28.069Z,26.05
2023-01-18T06:15:56.570Z,28.52
2023-01-18T06:18:25.163Z,25.95
2023-01-18T06:20:59.702Z,26.15
2023-01-18T06:23:28.802Z,23.80
2023-01-18T06:25:56.556Z,25.70
2023-01-18T06:28:23.698Z,29.45
2023-01-18T06:30:54.964Z,27.65
2023-01-18T06:33:22.625Z,24.13
2023-01-18T06:35:55.499Z,29.58
2023-01-18T06:38:22.347Z,30.70
2023-01-18T06:40:49.096Z,34.08
2023-01-18T06:43:17.020Z,31.00
2023-01-18T06:45:43.845Z,34.42
2023-01-18T06:48:19.744Z,29.70
2023-01-18T06:50:49.160Z,28.92
2023-01-18T06:53:16.164Z,31.20
2023-01-18T06:55:42.909Z,29.58
2023-01-18T06:58:10.196Z,34.25
2023-01-18T07:00:37.483Z,33.17
2023-01-18T07:03:04.447Z,27.55
2023-01-18T07:05:31.214Z,34.78
2023-01-18T07:07:57.979Z,35.20
2023-01-18T07:10:24.732Z,33.65
2023-01-18T07:12:51.575Z,27.02
2023-01-18T07:15:22.682Z,27.20
2023-01-18T07:17:50.464Z,25.83
2023-01-18T07:20:17.662Z,26.35
2023-01-18T07:22:44.551Z,31.33
2023-01-18T07:25:18.670Z,31.48
2023-01-18T07:27:46.195Z,25.30
2023-01-18T07:30:13.339Z,24.50
2023-01-18T07:32:40.313Z,19.45
2023-01-18T07:35:08.061Z,24.98
2023-01-18T07:37:36.865Z,42.65
2023-01-18T07:40:04.787Z,37.53
2023-01-18T07:42:31.640Z,39.50
2023-01-18T07:45:04.350Z,31.73
2023-01-18T07:47:33.453Z,36.33
2023-01-18T07:50:00.543Z,29.33
2023-01-18T07:52:30.592Z,30.95
2023-01-18T07:54:59.604Z,25.95
2023-01-18T07:57:28.664Z,30.15
2023-01-18T08:02:52.781Z,27.67
2023-01-18T08:07:57.353Z,39.63
2023-01-18T08:10:27.580Z,29.60
2023-01-18T08:12:54.443Z,30.58
2023-01-18T08:15:27.624Z,29.13
2023-01-18T08:17:55.471Z,34.50
2023-01-18T08:20:23.640Z,29.08
2023-01-18T08:22:57.276Z,25.00
2023-01-18T08:25:29.747Z,34.30
2023-01-18T08:28:01.415Z,28.60
2023-01-18T08:30:31.443Z,29.27
2023-01-18T08:33:02.812Z,26.15
2023-01-18T08:35:39.515Z,29.38
2023-01-18T08:38:07.447Z,22.65
2023-01-18T08:40:34.499Z,32.17
2023-01-18T08:43:05.627Z,21.50
2023-01-18T08:45:42.747Z,23.17
2023-01-18T08:48:13.436Z,28.13
2023-01-18T08:50:42.997Z,34.63
2023-01-18T08:53:10.449Z,21.02
2023-01-18T08:55:38.305Z,24.00
2023-01-18T08:58:05.118Z,29.52
2023-01-18T09:00:32.192Z,28.35
2023-01-18T09:03:02.227Z,24.30
2023-01-18T09:05:29.377Z,27.10
2023-01-18T09:07:59.117Z,31.08
2023-01-18T09:10:27.358Z,29.08
2023-01-18T09:12:59.020Z,42.88
2023-01-18T09:15:27.669Z,31.58
2023-01-18T09:18:01.235Z,36.75
2023-01-18T09:20:29.267Z,27.70
2023-01-18T09:22:56.412Z,30.85
2023-01-18T09:28:05.708Z,27.52
2023-01-18T09:30:38.831Z,34.53
2023-01-18T09:33:05.713Z,22.05
2023-01-18T09:35:33.109Z,27.90
2023-01-18T09:37:59.870Z,32.10
2023-01-18T09:40:44.201Z,22.85
2023-01-18T09:43:24.626Z,24.00
2023-01-18T09:45:51.403Z,28.48
2023-01-18T09:48:38.097Z,26.40
2023-01-18T09:51:13.913Z,28.20
2023-01-18T09:53:46.936Z,31.33
2023-01-18T09:56:25.770Z,30.70
2023-01-18T09:59:01.322Z,31.25
2023-01-18T10:01:32.657Z,29.00
2023-01-18T10:04:14.101Z,29.10
2023-01-18T10:06:49.532Z,32.40
2023-01-18T10:09:41.865Z,28.42
2023-01-18T10:12:31.720Z,26.48
2023-01-18T10:15:28.841Z,33.13
2023-01-18T10:18:00.470Z,25.52
2023-01-18T10:20:42.273Z,29.17
2023-01-18T10:23:31.190Z,25.93
2023-01-18T10:26:03.081Z,21.55
2023-01-18T10:28:40.842Z,19.08
2023-01-18T10:31:29.305Z,27.30
2023-01-18T10:33:59.294Z,22.73
2023-01-18T10:36:32.857Z,25.58
2023-01-18T10:43:45.140Z,20.80
2023-01-18T10:46:18.851Z,21.38
2023-01-18T10:48:51.053Z,21.67
2023-01-18T10:51:44.766Z,27.17
2023-01-18T10:54:23.144Z,24.83
2023-01-18T10:57:01.286Z,23.92
2023-01-18T10:59:36.221Z,23.38
2023-01-18T11:02:05.097Z,30.30
2023-01-18T11:04:33.803Z,22.38
2023-01-18T11:07:05.251Z,18.83
2023-01-18T11:09:41.688Z,24.95
2023-01-18T11:12:38.871Z,19.25
2023-01-18T11:15:27.275Z,24.05
2023-01-18T11:17:57.900Z,17.98
2023-01-18T11:20:46.294Z,20.52
2023-01-18T11:23:22.277Z,15.80
2023-01-18T11:25:57.137Z,20.58
2023-01-18T11:28:36.286Z,16.90
2023-01-18T11:31:12.901Z,15.68
2023-01-18T11:33:53.140Z,19.80
2023-01-18T11:36:32.999Z,18.17
2023-01-18T11:39:24.907Z,17.10
2023-01-18T11:42:09.543Z,20.88
2023-01-18T11:44:40.018Z,24.80
2023-01-18T11:47:16.645Z,20.27
2023-01-18T11:49:49.275Z,20.70
2023-01-18T11:52:53.045Z,16.83
2023-01-18T11:56:06.421Z,22.08
2023-01-18T11:58:35.393Z,20.63
2023-01-18T12:01:13.668Z,15.88
2023-01-18T12:03:46.347Z,20.52
2023-01-18T12:06:29.927Z,19.67
2023-01-18T12:09:03.606Z,18.42
2023-01-18T12:11:53.982Z,22.67
2023-01-18T12:14:29.588Z,21.02
2023-01-18T12:17:20.708Z,20.95
2023-01-18T12:20:03.137Z,23.75
2023-01-18T12:22:41.902Z,18.48
2023-01-18T12:25:40.454Z,20.02
2023-01-18T12:28:28.094Z,27.85
2023-01-18T12:31:16.713Z,25.02
2023-01-18T12:33:56.137Z,16.85
2023-01-18T12:36:47.485Z,17.33
2023-01-18T12:39:23.169Z,17.40
2023-01-18T12:41:59.910Z,24.10
2023-01-18T12:44:44.822Z,18.50
2023-01-18T12:47:17.406Z,16.98
2023-01-18T12:49:49.209Z,18.13
2023-01-18T12:52:19.391Z,20.75
2023-01-18T12:54:50.874Z,16.15
2023-01-18T12:57:19.084Z,15.98
2023-01-18T13:00:02.609Z,16.80
2023-01-18T13:02:41.355Z,14.27
2023-01-18T13:05:24.615Z,14.93
2023-01-18T13:08:04.602Z,13.00
2023-01-18T13:10:44.605Z,16.23
2023-01-18T13:13:17.736Z,13.40
2023-01-18T13:16:00.379Z,16.10
2023-01-18T13:21:39.451Z,14.57
2023-01-18T13:24:26.982Z,18.98
2023-01-18T13:27:06.793Z,14.35
2023-01-18T13:29:33.691Z,17.15
2023-01-18T13:32:00.686Z,11.45
2023-01-18T13:34:30.925Z,13.38
2023-01-18T13:37:13.312Z,14.60
2023-01-18T13:39:47.180Z,13.50
2023-01-18T13:42:21.880Z,11.85
2023-01-18T13:44:50.155Z,13.10
2023-01-18T13:47:35.692Z,12.02
2023-01-18T13:50:02.723Z,12.40
2023-01-18T13:52:35.703Z,12.15
2023-01-18T13:55:05.700Z,15.63
2023-01-18T13:57:33.968Z,12.10
2023-01-18T14:00:02.334Z,17.25
2023-01-18T14:02:42.202Z,14.10
2023-01-18T14:05:29.198Z,15.27
2023-01-18T14:08:01.809Z,13.32
2023-01-18T14:10:33.224Z,15.43
2023-01-18T14:13:04.293Z,10.02
2023-01-18T14:15:40.656Z,16.17
2023-01-18T14:18:27.097Z,11.80
2023-01-18T14:21:14.065Z,11.60
2023-01-18T14:24:19.508Z,11.35
2023-01-18T14:26:47.603Z,14.80
2023-01-18T14:29:17.368Z,15.38
2023-01-18T14:31:50.074Z,13.82
2023-01-18T14:34:29.092Z,13.07
2023-01-18T14:36:58.994Z,11.80
2023-01-18T14:39:26.021Z,13.23
2023-01-18T14:42:04.950Z,11.32
2023-01-18T14:44:57.282Z,12.48
2023-01-18T14:47:29.036Z,13.38
2023-01-18T14:49:55.922Z,12.18
2023-01-18T14:52:26.230Z,14.40
2023-01-18T14:54:55.901Z,12.57
2023-01-18T14:57:24.156Z,12.55
2023-01-18T15:00:17.149Z,13.68
2023-01-18T15:02:46.303Z,14.27
2023-01-18T15:05:19.720Z,12.38
2023-01-18T15:07:54.024Z,14.02
2023-01-18T15:10:22.200Z,12.35
2023-01-18T15:12:52.703Z,14.20
2023-01-18T15:15:31.038Z,12.80
2023-01-18T15:18:07.906Z,17.75
2023-01-18T15:20:34.749Z,14.68
2023-01-18T15:23:01.896Z,12.48
2023-01-18T15:25:33.325Z,20.17
2023-01-18T15:28:18.383Z,14.25
2023-01-18T15:30:54.094Z,11.98
2023-01-18T15:33:32.905Z,13.35
2023-01-18T15:36:01.499Z,12.82
2023-01-18T15:38:28.584Z,21.02
2023-01-18T15:41:01.191Z,16.73
2023-01-18T15:43:35.648Z,17.10
2023-01-18T15:46:03.081Z,14.77
2023-01-18T15:48:37.962Z,20.33
2023-01-18T15:51:08.231Z,12.38
2023-01-18T15:53:39.451Z,15.25
2023-01-18T15:56:16.834Z,15.25
2023-01-18T15:58:50.156Z,15.18
2023-01-18T16:05:42.500Z,14.32
2023-01-18T16:08:16.510Z,16.67
2023-01-18T16:10:57.117Z,17.63
2023-01-18T16:13:26.896Z,16.27
2023-01-18T16:16:15.258Z,17.85
2023-01-18T16:18:48.048Z,21.15
2023-01-18T16:21:29.643Z,16.90
2023-01-18T16:23:57.558Z,13.65
2023-01-18T16:26:30.352Z,20.83
2023-01-18T16:29:15.532Z,17.42
2023-01-18T16:31:44.351Z,18.75
2023-01-18T16:34:27.117Z,21.75
2023-01-18T16:36:54.874Z,14.48
2023-01-18T16:39:24.113Z,18.65
2023-01-18T16:41:56.241Z,19.45
2023-01-18T16:44:23.138Z,16.58
2023-01-18T16:46:50.326Z,20.00
2023-01-18T16:49:17.437Z,23.35
2023-01-18T16:51:44.260Z,17.63
2023-01-18T16:54:11.398Z,23.40
2023-01-18T16:56:39.429Z,19.70
2023-01-18T16:59:18.300Z,23.85
2023-01-18T17:01:46.340Z,23.20
2023-01-18T17:04:14.124Z,23.98
2023-01-18T17:06:41.769Z,19.40
2023-01-18T17:09:21.403Z,21.52
2023-01-18T17:11:48.912Z,25.45
2023-01-18T17:14:16.194Z,28.67
2023-01-18T17:16:43.780Z,25.17
2023-01-18T17:19:19.059Z,23.30
2023-01-18T17:21:47.895Z,21.90
2023-01-18T17:24:15.478Z,22.90
2023-01-18T17:26:43.311Z,23.20
2023-01-18T17:29:17.490Z,28.05
2023-01-18T17:31:52.270Z,30.13
2023-01-18T17:34:28.220Z,32.17
2023-01-18T17:36:57.109Z,34.83
2023-01-18T17:39:31.903Z,26.35
2023-01-18T17:42:12.050Z,23.08
2023-01-18T17:44:39.359Z,29.52
2023-01-18T17:47:06.372Z,32.70
2023-01-18T17:49:37.472Z,29.65
2023-01-18T17:52:04.451Z,31.75
2023-01-18T17:54:31.444Z,28.88
2023-01-18T17:56:58.321Z,28.15
2023-01-18T17:59:25.211Z,26.08
2023-01-18T18:01:52.125Z,27.73
2023-01-18T18:04:19.237Z,26.45
2023-01-18T18:06:54.185Z,25.65
2023-01-18T18:09:21.500Z,30.02
2023-01-18T18:11:48.302Z,26.70
2023-01-18T18:14:15.170Z,29.08
2023-01-18T18:16:43.709Z,26.80
2023-01-18T18:19:14.802Z,27.10
2023-01-18T18:21:42.919Z,26.45
2023-01-18T18:24:09.897Z,26.52
2023-01-18T18:26:36.771Z,28.75
2023-01-18T18:29:03.618Z,25.10
2023-01-18T18:31:30.499Z,28.67
2023-01-18T18:33:57.386Z,26.45
2023-01-18T18:36:27.205Z,25.52
2023-01-18T18:38:54.316Z,21.15
2023-01-18T18:41:21.144Z,27.30
2023-01-18T18:43:48.015Z,26.92
2023-01-18T18:46:14.935Z,26.45
2023-01-18T18:48:41.794Z,26.38
2023-01-18T18:51:08.769Z,23.63
2023-01-18T18:53:39.362Z,26.17
2023-01-18T18:56:10.224Z,26.00
2023-01-18T18:58:37.779Z,26.88
2023-01-18T19:01:05.487Z,27.48
2023-01-18T19:03:33.797Z,24.02
2023-01-18T19:06:00.704Z,26.83
2023-01-18T19:08:27.600Z,27.70
2023-01-18T19:10:56.177Z,26.92
2023-01-18T19:13:22.988Z,26.38
2023-01-18T19:15:50.357Z,25.52
2023-01-18T19:18:17.192Z,25.80
2023-01-18T19:20:44.109Z,30.45
2023-01-18T19:23:11.358Z,27.17
2023-01-18T19:25:39.153Z,27.55
2023-01-18T19:28:06.071Z,23.67
2023-01-18T19:30:33.362Z,25.10
2023-01-18T19:33:00.816Z,21.83
2023-01-18T19:35:28.432Z,22.50
2023-01-18T19:37:55.612Z,23.45
2023-01-18T19:40:22.453Z,22.63
2023-01-18T19:42:55.709Z,28.00
2023-01-18T19:45:28.190Z,27.02
2023-01-18T19:47:57.621Z,22.90
2023-01-18T19:50:25.898Z,23.85
2023-01-18T19:52:52.922Z,24.95
2023-01-18T19:55:21.732Z,23.27
2023-01-18T19:57:49.487Z,32.40
2023-01-18T20:00:16.720Z,27.23
2023-01-18T20:02:44.059Z,21.90
2023-01-18T20:05:10.992Z,27.58
2023-01-18T20:07:39.584Z,36.40
2023-01-18T20:10:07.766Z,29.90
2023-01-18T20:12:34.774Z,22.88
2023-01-18T20:15:01.862Z,21.80
2023-01-18T20:17:28.667Z,22.45
2023-01-18T20:19:55.548Z,20.15
2023-01-18T20:22:22.951Z,22.95
2023-01-18T20:24:50.158Z,27.73
2023-01-18T20:27:17.607Z,26.75
2023-01-18T20:29:45.030Z,22.65
2023-01-18T20:32:16.794Z,24.85
2023-01-18T20:34:44.800Z,24.05
2023-01-18T20:37:12.537Z,22.60
2023-01-18T20:39:39.731Z,23.20
2023-01-18T20:42:06.679Z,25.10
2023-01-18T20:44:33.575Z,23.85
2023-01-18T20:47:00.637Z,27.33
2023-01-18T20:49:36.966Z,28.42
2023-01-18T20:52:05.929Z,26.27
2023-01-18T20:54:34.698Z,19.88
2023-01-18T20:57:02.449Z,27.35
2023-01-18T20:59:29.257Z,23.63
2023-01-18T21:01:56.261Z,21.08
2023-01-18T21:04:23.104Z,25.38
2023-01-18T21:06:50.113Z,22.88
2023-01-18T21:09:17.126Z,22.30
2023-01-18T21:11:44.160Z,21.58
2023-01-18T21:14:11.705Z,25.75
2023-01-18T21:16:38.566Z,20.27
2023-01-18T21:19:05.433Z,24.13
2023-01-18T21:21:32.282Z,23.40
2023-01-18T21:24:00.113Z,23.52
2023-01-18T21:26:27.068Z,20.95
2023-01-18T21:28:56.987Z,23.30
2023-01-18T21:31:24.009Z,21.50
2023-01-18T21:33:51.168Z,22.98
2023-01-18T21:36:18.719Z,22.15
2023-01-18T21:38:45.748Z,18.38
2023-01-18T21:41:30.966Z,17.95
2023-01-18T21:44:16.509Z,19.58
2023-01-18T21:46:53.528Z,21.60
2023-01-18T21:50:11.003Z,20.83
2023-01-18T21:52:46.625Z,17.67
2023-01-18T21:55:15.296Z,19.25
2023-01-18T21:57:42.293Z,30.83
2023-01-18T22:00:10.117Z,17.48
2023-01-18T22:02:37.499Z,17.48
2023-01-18T22:05:05.992Z,19.45
2023-01-18T22:07:35.391Z,21.83
2023-01-18T22:10:07.014Z,22.40
2023-01-18T22:12:36.046Z,19.77
2023-01-18T22:15:04.435Z,20.67
2023-01-18T22:17:31.710Z,18.95
2023-01-18T22:19:58.624Z,22.60
2023-01-18T22:22:25.532Z,18.70
2023-01-18T22:24:52.412Z,20.27
2023-01-18T22:27:19.300Z,20.85
2023-01-18T22:29:46.175Z,19.67
2023-01-18T22:32:13.060Z,19.42
2023-01-18T22:34:40.087Z,18.08
2023-01-18T22:37:06.908Z,20.83
2023-01-18T22:39:33.716Z,18.73
2023-01-18T22:42:00.621Z,19.77
2023-01-18T22:44:27.544Z,18.25
2023-01-18T22:46:54.354Z,18.23
2023-01-18T22:49:21.166Z,17.30
2023-01-18T22:51:47.978Z,17.00
2023-01-18T22:54:15.255Z,17.95
2023-01-18T22:56:42.095Z,19.02
2023-01-18T22:59:08.990Z,18.52
2023-01-18T23:01:36.211Z,16.48
2023-01-18T23:04:04.355Z,16.92
2023-01-18T23:06:48.032Z,17.40
2023-01-18T23:09:17.335Z,16.35
2023-01-18T23:11:45.123Z,19.67
2023-01-18T23:14:30.501Z,12.80
2023-01-18T23:17:16.119Z,16.95
2023-01-18T23:19:43.055Z,16.48
2023-01-18T23:22:11.153Z,21.00
2023-01-18T23:24:39.004Z,18.55
2023-01-18T23:27:09.666Z,19.17
2023-01-18T23:29:36.895Z,15.50
2023-01-18T23:32:03.897Z,16.02
2023-01-18T23:34:30.722Z,19.30
2023-01-18T23:36:57.552Z,18.48
2023-01-18T23:39:43.026Z,15.32
2023-01-18T23:42:28.724Z,18.92
2023-01-18T23:45:14.233Z,12.93
2023-01-18T23:48:00.215Z,17.05
2023-01-18T23:50:45.946Z,16.13
2023-01-18T23:53:31.817Z,17.63
2023-01-18T23:55:59.482Z,15.02
2023-01-18T23:58:26.415Z,13.85
